createdAt,value
2017-10-14T00:00:08.693Z,80.80
2017-10-14T00:02:35.336Z,80.70
2017-10-14T00:05:02.745Z,81.00
2017-10-14T00:07:29.425Z,81.10
2017-10-14T00:09:56.539Z,81.20
2017-10-14T00:12:23.869Z,81.30
2017-10-14T00:14:51.203Z,81.40
2017-10-14T00:17:18.671Z,81.60
2017-10-14T00:19:47.531Z,81.60
2017-10-14T00:22:14.259Z,81.80
2017-10-14T00:24:40.949Z,82.00
2017-10-14T00:27:08.350Z,82.30
2017-10-14T00:29:35.155Z,82.90
2017-10-14T00:32:01.840Z,82.30
2017-10-14T00:34:28.609Z,82.10
2017-10-14T00:36:55.496Z,82.10
2017-10-14T00:39:22.707Z,82.00
2017-10-14T00:41:49.550Z,82.40
2017-10-14T00:44:16.238Z,82.30
2017-10-14T00:46:43.614Z,82.40
2017-10-14T00:49:11.255Z,82.50
2017-10-14T00:51:38.442Z,82.50
2017-10-14T00:54:04.998Z,82.50
2017-10-14T00:56:31.744Z,82.60
2017-10-14T00:58:58.581Z,82.50
2017-10-14T01:01:25.923Z,82.50
2017-10-14T01:03:53.453Z,82.50
2017-10-14T01:06:20.393Z,82.40
2017-10-14T01:08:47.960Z,82.70
2017-10-14T01:11:14.904Z,82.70
2017-10-14T01:13:41.753Z,82.80
2017-10-14T01:16:08.464Z,82.90
2017-10-14T01:18:35.224Z,82.80
2017-10-14T01:21:02.101Z,82.80
2017-10-14T01:23:28.916Z,82.90
2017-10-14T01:25:55.793Z,82.80
2017-10-14T01:28:22.695Z,82.90
2017-10-14T01:30:49.422Z,83.00
2017-10-14T01:33:16.490Z,83.00
2017-10-14T01:35:43.321Z,83.20
2017-10-14T01:38:10.286Z,83.30
2017-10-14T01:40:37.092Z,83.40
2017-10-14T01:43:03.912Z,83.50
2017-10-14T01:45:30.604Z,83.70
2017-10-14T01:47:57.907Z,83.60
2017-10-14T01:50:25.315Z,83.50
2017-10-14T01:52:52.116Z,83.50
2017-10-14T01:55:19.191Z,83.30
2017-10-14T01:57:46.182Z,83.60
2017-10-14T02:00:13.133Z,83.60
2017-10-14T02:02:39.858Z,83.60
2017-10-14T02:05:06.570Z,83.50
2017-10-14T02:07:34.116Z,83.40
2017-10-14T02:10:00.761Z,83.40
2017-10-14T02:12:27.586Z,83.40
2017-10-14T02:14:54.979Z,83.60
2017-10-14T02:17:22.092Z,83.50
2017-10-14T02:19:48.831Z,83.50
2017-10-14T02:22:17.130Z,83.60
2017-10-14T02:24:44.415Z,83.60
2017-10-14T02:27:11.107Z,83.40
2017-10-14T02:29:38.364Z,83.50
2017-10-14T02:32:05.314Z,83.50
2017-10-14T02:34:32.107Z,83.70
2017-10-14T02:36:58.845Z,83.40
2017-10-14T02:39:25.665Z,83.50
2017-10-14T02:41:52.337Z,83.60
2017-10-14T02:44:18.933Z,83.70
2017-10-14T02:46:46.131Z,83.80
2017-10-14T02:49:13.937Z,83.80
2017-10-14T02:51:40.681Z,83.80
2017-10-14T02:54:07.502Z,83.80
2017-10-14T02:56:35.077Z,83.80
2017-10-14T02:59:01.932Z,83.80
2017-10-14T03:01:29.064Z,84.00
2017-10-14T03:03:56.207Z,83.90
2017-10-14T03:06:23.354Z,83.90
2017-10-14T03:08:50.396Z,84.00
2017-10-14T03:11:17.239Z,84.00
2017-10-14T03:13:44.080Z,83.90
2017-10-14T03:16:10.776Z,83.80
2017-10-14T03:18:38.279Z,83.90
2017-10-14T03:21:05.992Z,83.80
2017-10-14T03:23:33.011Z,83.70
2017-10-14T03:25:59.954Z,83.80
2017-10-14T03:28:26.924Z,83.80
2017-10-14T03:30:54.049Z,83.80
2017-10-14T03:33:20.797Z,83.80
2017-10-14T03:35:47.710Z,83.70
2017-10-14T03:38:14.554Z,83.90
2017-10-14T03:40:41.482Z,83.80
2017-10-14T03:43:08.344Z,83.90
2017-10-14T03:45:41.107Z,83.90
2017-10-14T03:48:08.017Z,84.00
2017-10-14T03:50:35.020Z,83.90
2017-10-14T03:53:01.842Z,83.90
2017-10-14T03:55:28.912Z,83.90
2017-10-14T03:57:55.689Z,84.00
2017-10-14T04:00:23.213Z,83.80
2017-10-14T04:02:50.081Z,83.70
2017-10-14T04:05:17.796Z,83.80
2017-10-14T04:07:44.531Z,83.70
2017-10-14T04:10:11.300Z,83.80
2017-10-14T04:12:38.152Z,83.80
2017-10-14T04:15:04.995Z,83.90
2017-10-14T04:17:31.736Z,83.90
2017-10-14T04:19:58.502Z,84.00
2017-10-14T04:22:25.318Z,84.00
2017-10-14T04:24:52.907Z,84.00
2017-10-14T04:27:19.633Z,83.90
2017-10-14T04:29:46.454Z,84.00
2017-10-14T04:32:13.119Z,84.10
2017-10-14T04:34:39.902Z,84.20
2017-10-14T04:37:06.529Z,84.10
2017-10-14T04:39:36.580Z,84.10
2017-10-14T04:42:03.559Z,84.10
2017-10-14T04:44:30.287Z,84.10
2017-10-14T04:46:56.988Z,83.90
2017-10-14T04:49:23.727Z,83.80
2017-10-14T04:51:50.982Z,83.70
2017-10-14T04:54:18.061Z,83.70
2017-10-14T04:56:44.939Z,83.80
2017-10-14T04:59:11.858Z,83.90
2017-10-14T05:01:39.266Z,84.00
2017-10-14T05:04:06.118Z,83.80
2017-10-14T05:06:32.857Z,83.90
2017-10-14T05:08:59.647Z,83.80
2017-10-14T05:11:26.479Z,83.80
2017-10-14T05:13:53.567Z,84.00
2017-10-14T05:16:20.352Z,84.10
2017-10-14T05:18:46.952Z,84.10
2017-10-14T05:21:13.810Z,84.00
2017-10-14T05:23:40.694Z,84.00
2017-10-14T05:26:07.555Z,84.10
2017-10-14T05:28:34.271Z,84.10
2017-10-14T05:31:00.949Z,84.10
2017-10-14T05:33:27.543Z,84.10
2017-10-14T05:35:54.287Z,84.10
2017-10-14T05:38:20.847Z,83.90
2017-10-14T05:40:47.497Z,84.00
2017-10-14T05:43:14.134Z,83.90
2017-10-14T05:45:40.859Z,83.80
2017-10-14T05:48:07.512Z,83.70
2017-10-14T05:50:34.274Z,83.70
2017-10-14T05:53:00.938Z,83.60
2017-10-14T05:55:27.765Z,83.60
2017-10-14T05:57:54.326Z,83.40
2017-10-14T06:00:21.131Z,83.40
2017-10-14T06:02:47.870Z,84.00
2017-10-14T06:05:14.757Z,83.30
2017-10-14T06:07:41.539Z,83.40
2017-10-14T06:10:08.339Z,83.40
2017-10-14T06:12:35.361Z,83.30
2017-10-14T06:15:02.017Z,83.40
2017-10-14T06:17:28.795Z,83.30
2017-10-14T06:19:55.544Z,83.30
2017-10-14T06:22:22.262Z,83.20
2017-10-14T06:24:49.087Z,83.30
2017-10-14T06:27:16.181Z,83.20
2017-10-14T06:29:42.874Z,83.20
2017-10-14T06:32:09.446Z,83.10
2017-10-14T06:34:36.250Z,83.00
2017-10-14T06:37:03.921Z,82.90
2017-10-14T06:39:32.141Z,82.90
2017-10-14T06:41:59.273Z,82.80
2017-10-14T06:44:25.916Z,82.70
2017-10-14T06:46:52.701Z,82.70
2017-10-14T06:49:19.553Z,82.70
2017-10-14T06:51:46.445Z,82.80
2017-10-14T06:54:13.156Z,82.80
2017-10-14T06:56:40.707Z,82.80
2017-10-14T06:59:07.487Z,82.80
2017-10-14T07:01:34.656Z,82.60
2017-10-14T07:04:01.517Z,82.60
2017-10-14T07:06:28.454Z,82.50
2017-10-14T07:08:55.735Z,82.40
2017-10-14T07:11:22.424Z,82.30
2017-10-14T07:13:49.324Z,82.20
2017-10-14T07:16:16.090Z,82.10
2017-10-14T07:18:42.903Z,82.40
2017-10-14T07:21:09.562Z,82.30
2017-10-14T07:23:36.458Z,82.40
2017-10-14T07:26:03.651Z,82.50
2017-10-14T07:28:31.299Z,82.60
2017-10-14T07:30:58.103Z,82.50
2017-10-14T07:33:24.748Z,82.50
2017-10-14T07:35:51.513Z,82.50
2017-10-14T07:38:18.175Z,82.30
2017-10-14T07:40:44.919Z,82.40
2017-10-14T07:43:11.550Z,82.50
2017-10-14T07:45:38.310Z,82.60
2017-10-14T07:48:05.262Z,82.60
2017-10-14T07:50:31.937Z,82.70
2017-10-14T07:52:58.808Z,82.60
2017-10-14T07:55:26.693Z,82.60
2017-10-14T07:57:54.102Z,82.50
2017-10-14T08:00:20.994Z,82.70
2017-10-14T08:02:48.609Z,82.60
2017-10-14T08:05:16.112Z,82.40
2017-10-14T08:07:43.125Z,82.50
2017-10-14T08:10:10.387Z,82.30
2017-10-14T08:12:40.091Z,82.30
2017-10-14T08:15:07.999Z,82.30
2017-10-14T08:17:34.744Z,82.20
2017-10-14T08:20:02.620Z,82.40
2017-10-14T08:22:29.339Z,82.40
2017-10-14T08:24:55.925Z,82.50
2017-10-14T08:27:22.705Z,82.70
2017-10-14T08:29:49.519Z,82.90
2017-10-14T08:32:16.291Z,82.90
2017-10-14T08:34:43.052Z,83.10
2017-10-14T08:37:09.790Z,83.00
2017-10-14T08:39:37.659Z,82.90
2017-10-14T08:42:04.547Z,82.90
2017-10-14T08:44:31.256Z,82.50
2017-10-14T08:46:58.071Z,82.40
2017-10-14T08:49:26.262Z,82.40
2017-10-14T08:51:58.470Z,82.30
2017-10-14T08:54:26.988Z,82.10
2017-10-14T08:56:55.391Z,81.80
2017-10-14T08:59:27.288Z,81.80
2017-10-14T09:01:56.579Z,81.70
2017-10-14T09:04:23.618Z,81.80
2017-10-14T09:06:54.014Z,81.10
2017-10-14T09:09:23.311Z,80.30
2017-10-14T09:11:51.174Z,79.60
2017-10-14T09:14:19.137Z,79.40
2017-10-14T09:16:47.179Z,78.80
2017-10-14T09:19:14.069Z,78.10
2017-10-14T09:21:41.069Z,77.90
2017-10-14T09:24:07.852Z,77.10
2017-10-14T09:26:34.872Z,76.00
2017-10-14T09:29:02.344Z,75.00
2017-10-14T09:31:29.794Z,74.30
2017-10-14T09:33:57.705Z,74.80
2017-10-14T09:36:25.953Z,76.30
2017-10-14T09:38:53.640Z,78.40
2017-10-14T09:41:20.344Z,78.30
2017-10-14T09:43:47.158Z,78.40
2017-10-14T09:46:14.005Z,78.50
2017-10-14T09:48:40.947Z,78.00
2017-10-14T09:51:07.788Z,77.20
2017-10-14T09:53:38.417Z,76.90
2017-10-14T09:56:09.309Z,77.90
2017-10-14T09:58:39.598Z,78.90
2017-10-14T10:01:09.121Z,78.90
2017-10-14T10:03:35.761Z,78.90
2017-10-14T10:06:02.464Z,79.60
2017-10-14T10:08:29.703Z,79.90
2017-10-14T10:10:56.349Z,80.10
2017-10-14T10:13:23.196Z,79.60
2017-10-14T10:15:52.373Z,79.80
2017-10-14T10:18:19.154Z,79.60
2017-10-14T10:20:45.832Z,79.70
2017-10-14T10:23:12.845Z,79.50
2017-10-14T10:25:39.540Z,79.20
2017-10-14T10:28:06.426Z,79.20
2017-10-14T10:30:33.440Z,79.40
2017-10-14T10:33:00.482Z,79.50
2017-10-14T10:35:28.243Z,80.00
2017-10-14T10:37:55.047Z,79.80
2017-10-14T10:40:21.848Z,80.00
2017-10-14T10:42:48.607Z,79.70
2017-10-14T10:45:15.696Z,79.70
2017-10-14T10:47:42.671Z,80.00
2017-10-14T10:50:09.689Z,80.50
2017-10-14T10:52:36.376Z,80.40
2017-10-14T10:55:03.207Z,80.70
2017-10-14T10:57:29.938Z,80.70
2017-10-14T10:59:57.069Z,80.50
2017-10-14T11:02:23.826Z,80.80
2017-10-14T11:04:50.728Z,80.80
2017-10-14T11:07:17.653Z,80.80
2017-10-14T11:09:44.312Z,80.90
2017-10-14T11:12:12.090Z,80.90
2017-10-14T11:14:38.990Z,80.90
2017-10-14T11:17:06.029Z,80.40
2017-10-14T11:19:32.842Z,80.10
2017-10-14T11:21:59.812Z,80.30
2017-10-14T11:24:26.448Z,80.20
2017-10-14T11:26:53.108Z,79.90
2017-10-14T11:29:20.341Z,80.20
2017-10-14T11:31:47.237Z,80.00
2017-10-14T11:34:14.255Z,79.90
2017-10-14T11:36:41.155Z,79.80
2017-10-14T11:39:07.982Z,80.00
2017-10-14T11:41:34.732Z,80.30
2017-10-14T11:44:02.152Z,80.30
2017-10-14T11:46:28.878Z,80.50
2017-10-14T11:48:55.548Z,80.50
2017-10-14T11:51:22.409Z,81.20
2017-10-14T11:53:49.070Z,79.90
2017-10-14T11:56:16.223Z,79.80
2017-10-14T11:58:42.938Z,79.50
2017-10-14T12:01:09.857Z,79.90
2017-10-14T12:03:37.111Z,80.50
2017-10-14T12:06:04.661Z,80.80
2017-10-14T12:08:31.667Z,80.80
2017-10-14T12:10:58.337Z,80.90
2017-10-14T12:13:25.178Z,81.20
2017-10-14T12:15:52.048Z,81.80
2017-10-14T12:18:18.963Z,81.10
2017-10-14T12:20:45.702Z,81.30
2017-10-14T12:23:12.511Z,81.40
2017-10-14T12:25:39.216Z,81.00
2017-10-14T12:28:06.571Z,81.30
2017-10-14T12:30:33.316Z,81.30
2017-10-14T12:32:59.992Z,81.50
2017-10-14T12:35:26.829Z,81.30
2017-10-14T12:38:03.391Z,81.40
2017-10-14T12:40:32.293Z,81.50
2017-10-14T12:42:59.206Z,81.40
2017-10-14T12:45:25.964Z,81.40
2017-10-14T12:47:53.031Z,81.70
2017-10-14T12:50:19.832Z,81.70
2017-10-14T12:52:46.472Z,81.50
2017-10-14T12:55:13.225Z,81.40
2017-10-14T12:57:39.819Z,81.30
2017-10-14T13:00:06.720Z,81.60
2017-10-14T13:02:33.947Z,81.30
2017-10-14T13:05:00.690Z,81.60
2017-10-14T13:07:27.347Z,81.40
2017-10-14T13:09:54.111Z,81.20
2017-10-14T13:12:20.671Z,81.10
2017-10-14T13:14:47.337Z,81.40
2017-10-14T13:17:14.142Z,81.30
2017-10-14T13:19:41.025Z,81.20
2017-10-14T13:22:08.721Z,81.70
2017-10-14T13:24:35.351Z,81.70
2017-10-14T13:27:02.387Z,81.90
2017-10-14T13:29:29.847Z,82.50
2017-10-14T13:31:56.776Z,82.30
2017-10-14T13:34:24.511Z,82.60
2017-10-14T13:36:52.101Z,82.70
2017-10-14T13:39:18.954Z,82.60
2017-10-14T13:41:45.989Z,82.90
2017-10-14T13:44:12.648Z,82.70
2017-10-14T13:46:41.235Z,82.70
2017-10-14T13:49:09.182Z,82.80
2017-10-14T13:51:36.921Z,82.90
2017-10-14T13:54:06.751Z,82.90
2017-10-14T13:56:35.031Z,83.10
2017-10-14T13:59:02.087Z,83.00
2017-10-14T14:01:29.358Z,83.20
2017-10-14T14:03:56.212Z,83.10
2017-10-14T14:06:23.018Z,83.10
2017-10-14T14:08:50.323Z,83.30
2017-10-14T14:11:17.243Z,83.50
2017-10-14T14:13:43.940Z,83.60
2017-10-14T14:16:10.803Z,83.40
2017-10-14T14:18:37.888Z,83.20
2017-10-14T14:21:04.861Z,83.20
2017-10-14T14:23:31.722Z,83.10
2017-10-14T14:25:58.371Z,83.00
2017-10-14T14:28:25.116Z,83.00
2017-10-14T14:30:52.240Z,82.90
2017-10-14T14:33:18.973Z,83.00
2017-10-14T14:35:45.853Z,83.10
2017-10-14T14:38:13.340Z,83.60
2017-10-14T14:40:40.142Z,83.70
2017-10-14T14:43:07.193Z,83.70
2017-10-14T14:45:34.564Z,83.80
2017-10-14T14:48:01.395Z,83.90
2017-10-14T14:50:28.339Z,83.70
2017-10-14T14:52:55.557Z,83.60
2017-10-14T14:55:26.077Z,83.60
2017-10-14T14:57:53.887Z,83.70
2017-10-14T15:00:20.783Z,83.60
2017-10-14T15:02:47.436Z,83.40
2017-10-14T15:05:14.340Z,83.50
2017-10-14T15:07:41.229Z,83.50
2017-10-14T15:10:08.578Z,83.50
2017-10-14T15:12:35.438Z,83.50
2017-10-14T15:15:02.575Z,83.60
2017-10-14T15:17:29.888Z,83.80
2017-10-14T15:19:56.756Z,84.00
2017-10-14T15:22:23.623Z,84.20
2017-10-14T15:24:50.285Z,84.60
2017-10-14T15:27:17.006Z,84.90
2017-10-14T15:29:44.054Z,85.60
2017-10-14T15:32:11.119Z,86.20
2017-10-14T15:34:38.264Z,86.50
2017-10-14T15:37:05.122Z,86.80
2017-10-14T15:39:31.865Z,87.20
2017-10-14T15:41:58.605Z,87.60
2017-10-14T15:44:25.605Z,88.10
2017-10-14T15:46:52.547Z,88.20
2017-10-14T15:49:20.100Z,88.20
2017-10-14T15:51:47.212Z,87.90
2017-10-14T15:54:14.739Z,88.10
2017-10-14T15:56:41.653Z,87.90
2017-10-14T15:59:08.465Z,87.80
2017-10-14T16:01:35.128Z,87.90
2017-10-14T16:04:01.868Z,88.00
2017-10-14T16:06:29.163Z,88.10
2017-10-14T16:08:55.916Z,88.10
2017-10-14T16:11:22.970Z,88.40
2017-10-14T16:13:50.108Z,88.60
2017-10-14T16:16:17.038Z,88.80
2017-10-14T16:18:43.731Z,89.10
2017-10-14T16:21:10.569Z,89.10
2017-10-14T16:23:37.415Z,89.10
2017-10-14T16:26:04.065Z,89.30
2017-10-14T16:28:30.975Z,89.40
2017-10-14T16:30:57.733Z,90.00
2017-10-14T16:33:24.369Z,89.30
2017-10-14T16:35:52.075Z,89.40
2017-10-14T16:38:18.684Z,89.30
2017-10-14T16:40:45.468Z,89.40
2017-10-14T16:43:12.334Z,89.90
2017-10-14T16:45:38.970Z,89.10
2017-10-14T16:48:05.732Z,88.90
2017-10-14T16:50:32.545Z,88.70
2017-10-14T16:52:59.922Z,88.20
2017-10-14T16:55:26.741Z,88.10
2017-10-14T16:57:53.409Z,88.00
2017-10-14T17:00:20.253Z,87.90
2017-10-14T17:02:47.110Z,87.80
2017-10-14T17:05:13.887Z,87.80
2017-10-14T17:07:40.836Z,87.80
2017-10-14T17:10:07.516Z,87.70
2017-10-14T17:12:37.426Z,87.30
2017-10-14T17:17:37.265Z,87.00
2017-10-14T17:20:04.855Z,87.20
2017-10-14T17:22:31.692Z,87.20
2017-10-14T17:24:58.439Z,87.00
2017-10-14T17:27:25.231Z,86.70
2017-10-14T17:29:51.980Z,86.50
2017-10-14T17:32:18.685Z,86.20
2017-10-14T17:34:45.595Z,86.10
2017-10-14T17:37:12.381Z,86.10
2017-10-14T17:39:39.181Z,85.80
2017-10-14T17:42:06.793Z,85.80
2017-10-14T17:44:33.653Z,85.80
2017-10-14T17:47:00.607Z,85.80
2017-10-14T17:49:27.439Z,85.60
2017-10-14T17:51:54.354Z,85.60
2017-10-14T17:54:21.133Z,85.70
2017-10-14T17:56:48.096Z,85.70
2017-10-14T17:59:14.805Z,85.90
2017-10-14T18:01:41.856Z,86.10
2017-10-14T18:04:08.689Z,86.10
2017-10-14T18:06:35.467Z,86.10
2017-10-14T18:09:02.584Z,86.20
2017-10-14T18:11:29.223Z,86.10
2017-10-14T18:13:55.956Z,86.10
2017-10-14T18:16:23.394Z,86.20
2017-10-14T18:18:50.233Z,86.20
2017-10-14T18:21:17.763Z,86.30
2017-10-14T18:23:44.493Z,86.20
2017-10-14T18:26:11.200Z,86.20
2017-10-14T18:28:38.048Z,86.00
2017-10-14T18:31:04.774Z,85.80
2017-10-14T18:33:31.932Z,85.80
2017-10-14T18:35:58.691Z,85.50
2017-10-14T18:38:25.636Z,85.30
2017-10-14T18:40:52.426Z,84.90
2017-10-14T18:43:19.356Z,84.70
2017-10-14T18:45:46.253Z,84.70
2017-10-14T18:48:13.200Z,84.60
2017-10-14T18:50:40.310Z,84.50
2017-10-14T18:53:07.185Z,84.30
2017-10-14T18:55:34.265Z,84.10
2017-10-14T18:58:02.117Z,83.60
2017-10-14T19:00:29.129Z,83.60
2017-10-14T19:02:56.451Z,83.60
2017-10-14T19:05:23.399Z,83.60
2017-10-14T19:07:50.407Z,83.50
2017-10-14T19:10:17.623Z,83.40
2017-10-14T19:12:44.225Z,83.50
2017-10-14T19:15:11.007Z,83.60
2017-10-14T19:17:37.738Z,83.60
2017-10-14T19:20:04.536Z,83.50
2017-10-14T19:22:31.777Z,83.60
2017-10-14T19:24:58.554Z,83.40
2017-10-14T19:27:25.187Z,83.50
2017-10-14T19:29:52.572Z,83.80
2017-10-14T19:32:19.517Z,83.80
2017-10-14T19:34:46.268Z,83.80
2017-10-14T19:37:13.407Z,83.70
2017-10-14T19:39:40.993Z,83.60
2017-10-14T19:42:07.903Z,83.70
2017-10-14T19:44:34.648Z,83.70
2017-10-14T19:47:01.438Z,83.80
2017-10-14T19:49:28.991Z,83.70
2017-10-14T19:51:55.957Z,83.60
2017-10-14T19:54:22.610Z,83.60
2017-10-14T19:56:49.675Z,83.70
2017-10-14T19:59:16.742Z,83.70
2017-10-14T20:01:43.623Z,83.70
2017-10-14T20:04:10.382Z,83.50
2017-10-14T20:06:37.261Z,83.40
2017-10-14T20:09:04.056Z,83.40
2017-10-14T20:11:30.873Z,83.50
2017-10-14T20:13:57.699Z,83.60
2017-10-14T20:16:24.597Z,83.60
2017-10-14T20:18:51.877Z,83.50
2017-10-14T20:21:18.745Z,83.50
2017-10-14T20:23:45.792Z,83.30
2017-10-14T20:26:12.875Z,83.30
2017-10-14T20:28:39.910Z,83.30
2017-10-14T20:31:06.654Z,83.30
2017-10-14T20:33:33.610Z,83.20
2017-10-14T20:36:00.864Z,83.10
2017-10-14T20:38:28.631Z,83.00
2017-10-14T20:40:55.597Z,82.90
2017-10-14T20:43:22.316Z,82.90
2017-10-14T20:45:49.100Z,82.80
2017-10-14T20:48:15.999Z,82.80
2017-10-14T20:50:43.349Z,82.70
2017-10-14T20:53:10.158Z,82.70
2017-10-14T20:55:37.093Z,82.60
2017-10-14T20:58:03.690Z,82.50
2017-10-14T21:00:30.560Z,82.40
2017-10-14T21:03:04.286Z,82.60
2017-10-14T21:05:31.252Z,82.50
2017-10-14T21:07:58.128Z,82.40
2017-10-14T21:10:25.558Z,82.40
2017-10-14T21:12:52.760Z,82.40
2017-10-14T21:15:19.481Z,83.10
2017-10-14T21:17:46.318Z,82.30
2017-10-14T21:20:13.152Z,82.40
2017-10-14T21:22:39.914Z,82.40
2017-10-14T21:25:06.780Z,82.30
2017-10-14T21:27:33.561Z,82.50
2017-10-14T21:30:00.345Z,82.60
2017-10-14T21:32:27.633Z,82.60
2017-10-14T21:34:55.480Z,82.70
2017-10-14T21:37:22.247Z,82.50
2017-10-14T21:39:49.004Z,82.50
2017-10-14T21:42:15.745Z,82.50
2017-10-14T21:44:42.707Z,82.50
2017-10-14T21:47:09.941Z,82.70
2017-10-14T21:49:36.627Z,82.70
2017-10-14T21:52:03.746Z,82.90
2017-10-14T21:54:30.671Z,83.00
2017-10-14T21:56:57.499Z,83.10
2017-10-14T21:59:24.220Z,83.40
2017-10-14T22:01:51.232Z,83.70
2017-10-14T22:04:17.875Z,83.70
2017-10-14T22:06:44.639Z,84.10
2017-10-14T22:09:11.394Z,84.20
2017-10-14T22:11:38.302Z,84.20
2017-10-14T22:14:05.187Z,84.00
2017-10-14T22:16:32.176Z,83.90
2017-10-14T22:18:59.272Z,83.70
2017-10-14T22:21:26.084Z,84.50
2017-10-14T22:23:53.416Z,83.70
2017-10-14T22:26:20.217Z,83.70
2017-10-14T22:28:47.025Z,83.70
2017-10-14T22:31:13.877Z,83.60
2017-10-14T22:33:41.461Z,83.50
2017-10-14T22:36:08.772Z,83.50
2017-10-14T22:38:35.486Z,83.60
2017-10-14T22:41:02.291Z,83.60
2017-10-14T22:43:29.004Z,83.60
2017-10-14T22:45:55.846Z,83.40
2017-10-14T22:48:23.284Z,83.40
2017-10-14T22:50:50.866Z,83.10
2017-10-14T22:53:17.628Z,83.10
2017-10-14T22:55:44.504Z,83.10
2017-10-14T22:58:11.169Z,83.10
2017-10-14T23:00:37.966Z,83.20
2017-10-14T23:03:04.806Z,83.00
2017-10-14T23:05:31.632Z,83.00
2017-10-14T23:07:58.326Z,82.90
2017-10-14T23:10:24.877Z,83.00
2017-10-14T23:12:51.543Z,83.00
2017-10-14T23:15:18.313Z,83.00
2017-10-14T23:17:45.070Z,82.80
2017-10-14T23:20:11.926Z,82.80
2017-10-14T23:22:38.753Z,82.80
2017-10-14T23:25:05.625Z,83.00
2017-10-14T23:27:32.253Z,83.10
2017-10-14T23:29:59.148Z,82.90
2017-10-14T23:32:26.052Z,82.90
2017-10-14T23:34:53.563Z,83.00
2017-10-14T23:37:20.485Z,82.90
2017-10-14T23:39:47.391Z,83.00
2017-10-14T23:42:14.097Z,83.10
2017-10-14T23:44:41.587Z,83.00
2017-10-14T23:47:08.366Z,83.00
2017-10-14T23:49:35.372Z,83.00
2017-10-14T23:52:02.358Z,83.20
2017-10-14T23:54:29.148Z,83.60
2017-10-14T23:56:55.933Z,82.90
2017-10-14T23:59:22.868Z,83.10
